sensor_id;sensor_type;location;lat;lon;timestamp;temperature;humidity
6293;DHT22;3179;54.350;10.102;2023-03-13T00:00:58;7.30;99.90
6293;DHT22;3179;54.350;10.102;2023-03-13T00:03:27;7.30;99.90
6293;DHT22;3179;54.350;10.102;2023-03-13T00:05:57;7.30;99.90
6293;DHT22;3179;54.350;10.102;2023-03-13T00:08:24;7.30;99.90
6293;DHT22;3179;54.350;10.102;2023-03-13T00:10:54;7.40;99.90
6293;DHT22;3179;54.350;10.102;2023-03-13T00:13:22;7.30;99.90
6293;DHT22;3179;54.350;10.102;2023-03-13T00:15:49;7.30;99.90
6293;DHT22;3179;54.350;10.102;2023-03-13T00:18:16;7.40;99.90
6293;DHT22;3179;54.350;10.102;2023-03-13T00:20:42;7.40;99.90
6293;DHT22;3179;54.350;10.102;2023-03-13T00:23:12;7.40;99.90
6293;DHT22;3179;54.350;10.102;2023-03-13T00:25:38;7.40;99.90
6293;DHT22;3179;54.350;10.102;2023-03-13T00:28:05;7.40;99.90
6293;DHT22;3179;54.350;10.102;2023-03-13T00:30:33;7.40;99.90
6293;DHT22;3179;54.350;10.102;2023-03-13T00:33:00;7.40;99.90
6293;DHT22;3179;54.350;10.102;2023-03-13T00:35:27;7.40;99.90
6293;DHT22;3179;54.350;10.102;2023-03-13T00:37:53;7.40;99.90
6293;DHT22;3179;54.350;10.102;2023-03-13T00:40:20;7.40;99.90
6293;DHT22;3179;54.350;10.102;2023-03-13T00:42:47;7.40;99.90
6293;DHT22;3179;54.350;10.102;2023-03-13T00:45:14;7.40;99.90
6293;DHT22;3179;54.350;10.102;2023-03-13T00:47:42;7.40;99.90
6293;DHT22;3179;54.350;10.102;2023-03-13T00:50:09;7.50;99.90
6293;DHT22;3179;54.350;10.102;2023-03-13T00:52:36;7.40;99.90
6293;DHT22;3179;54.350;10.102;2023-03-13T00:55:03;7.40;99.90
6293;DHT22;3179;54.350;10.102;2023-03-13T00:57:31;7.50;99.90
6293;DHT22;3179;54.350;10.102;2023-03-13T01:00:02;7.50;99.90
6293;DHT22;3179;54.350;10.102;2023-03-13T01:02:30;7.50;99.90
6293;DHT22;3179;54.350;10.102;2023-03-13T01:04:58;7.50;99.90
6293;DHT22;3179;54.350;10.102;2023-03-13T01:07:25;7.50;99.90
6293;DHT22;3179;54.350;10.102;2023-03-13T01:09:52;7.60;99.90
6293;DHT22;3179;54.350;10.102;2023-03-13T01:12:19;7.50;99.90
6293;DHT22;3179;54.350;10.102;2023-03-13T01:14:48;7.50;99.90
6293;DHT22;3179;54.350;10.102;2023-03-13T01:17:15;7.50;99.90
6293;DHT22;3179;54.350;10.102;2023-03-13T01:19:42;7.50;99.90
6293;DHT22;3179;54.350;10.102;2023-03-13T01:22:10;7.60;99.90
6293;DHT22;3179;54.350;10.102;2023-03-13T01:24:37;7.60;99.90
6293;DHT22;3179;54.350;10.102;2023-03-13T01:27:03;7.60;99.90
6293;DHT22;3179;54.350;10.102;2023-03-13T01:29:30;7.60;99.90
6293;DHT22;3179;54.350;10.102;2023-03-13T01:31:57;7.60;99.90
6293;DHT22;3179;54.350;10.102;2023-03-13T01:34:24;7.60;99.90
6293;DHT22;3179;54.350;10.102;2023-03-13T01:36:50;7.60;99.90
6293;DHT22;3179;54.350;10.102;2023-03-13T01:39:19;7.60;99.90
6293;DHT22;3179;54.350;10.102;2023-03-13T01:41:45;7.60;99.90
6293;DHT22;3179;54.350;10.102;2023-03-13T01:44:20;7.70;99.90
6293;DHT22;3179;54.350;10.102;2023-03-13T01:46:47;7.70;99.90
6293;DHT22;3179;54.350;10.102;2023-03-13T01:49:17;7.60;99.90
6293;DHT22;3179;54.350;10.102;2023-03-13T01:51:47;7.70;99.90
6293;DHT22;3179;54.350;10.102;2023-03-13T01:54:19;7.70;99.90
6293;DHT22;3179;54.350;10.102;2023-03-13T01:56:49;7.70;99.90
6293;DHT22;3179;54.350;10.102;2023-03-13T01:59:21;7.70;99.90
6293;DHT22;3179;54.350;10.102;2023-03-13T02:01:49;7.70;99.90
6293;DHT22;3179;54.350;10.102;2023-03-13T02:04:18;7.70;99.90
6293;DHT22;3179;54.350;10.102;2023-03-13T02:06:49;7.80;99.90
6293;DHT22;3179;54.350;10.102;2023-03-13T02:09:23;7.80;99.90
6293;DHT22;3179;54.350;10.102;2023-03-13T02:11:54;7.80;99.90
6293;DHT22;3179;54.350;10.102;2023-03-13T02:14:26;7.80;99.90
6293;DHT22;3179;54.350;10.102;2023-03-13T02:16:54;7.80;99.90
6293;DHT22;3179;54.350;10.102;2023-03-13T02:19:27;7.80;99.90
6293;DHT22;3179;54.350;10.102;2023-03-13T02:21:58;7.90;99.90
6293;DHT22;3179;54.350;10.102;2023-03-13T02:24:33;7.80;99.90
6293;DHT22;3179;54.350;10.102;2023-03-13T02:27:03;7.90;99.90
6293;DHT22;3179;54.350;10.102;2023-03-13T02:29:30;7.80;99.90
6293;DHT22;3179;54.350;10.102;2023-03-13T02:31:57;7.90;99.90
6293;DHT22;3179;54.350;10.102;2023-03-13T02:34:26;7.80;99.90
6293;DHT22;3179;54.350;10.102;2023-03-13T02:36:54;7.90;99.90
6293;DHT22;3179;54.350;10.102;2023-03-13T02:39:22;7.80;99.90
6293;DHT22;3179;54.350;10.102;2023-03-13T02:41:51;7.90;99.90
6293;DHT22;3179;54.350;10.102;2023-03-13T02:44:19;7.90;99.90
6293;DHT22;3179;54.350;10.102;2023-03-13T02:46:48;7.90;99.90
6293;DHT22;3179;54.350;10.102;2023-03-13T02:49:20;7.90;99.90
6293;DHT22;3179;54.350;10.102;2023-03-13T02:51:48;7.90;99.90
6293;DHT22;3179;54.350;10.102;2023-03-13T02:54:18;7.90;99.90
6293;DHT22;3179;54.350;10.102;2023-03-13T02:56:48;7.90;99.90
6293;DHT22;3179;54.350;10.102;2023-03-13T02:59:16;7.80;99.90
6293;DHT22;3179;54.350;10.102;2023-03-13T03:01:44;7.90;99.90
6293;DHT22;3179;54.350;10.102;2023-03-13T03:04:11;7.90;99.90
6293;DHT22;3179;54.350;10.102;2023-03-13T03:06:38;7.90;99.90
6293;DHT22;3179;54.350;10.102;2023-03-13T03:09:05;7.90;99.90
6293;DHT22;3179;54.350;10.102;2023-03-13T03:11:31;7.90;99.90
6293;DHT22;3179;54.350;10.102;2023-03-13T03:13:58;7.90;99.90
6293;DHT22;3179;54.350;10.102;2023-03-13T03:16:25;7.90;99.90
6293;DHT22;3179;54.350;10.102;2023-03-13T03:18:53;7.90;99.90
6293;DHT22;3179;54.350;10.102;2023-03-13T03:21:20;7.90;99.90
6293;DHT22;3179;54.350;10.102;2023-03-13T03:23:49;7.90;99.90
6293;DHT22;3179;54.350;10.102;2023-03-13T03:26:16;7.90;99.90
6293;DHT22;3179;54.350;10.102;2023-03-13T03:28:43;7.90;99.90
6293;DHT22;3179;54.350;10.102;2023-03-13T03:31:11;7.90;99.90
6293;DHT22;3179;54.350;10.102;2023-03-13T03:33:39;8.00;99.90
6293;DHT22;3179;54.350;10.102;2023-03-13T03:36:09;7.90;99.90
6293;DHT22;3179;54.350;10.102;2023-03-13T03:38:36;8.00;99.90
6293;DHT22;3179;54.350;10.102;2023-03-13T03:41:04;8.00;99.90
6293;DHT22;3179;54.350;10.102;2023-03-13T03:43:31;8.00;99.90
6293;DHT22;3179;54.350;10.102;2023-03-13T03:45:58;8.00;99.90
6293;DHT22;3179;54.350;10.102;2023-03-13T03:48:24;8.00;99.90
6293;DHT22;3179;54.350;10.102;2023-03-13T03:50:51;8.00;99.90
6293;DHT22;3179;54.350;10.102;2023-03-13T03:53:19;8.00;99.90
6293;DHT22;3179;54.350;10.102;2023-03-13T03:55:46;8.00;99.90
6293;DHT22;3179;54.350;10.102;2023-03-13T03:58:13;8.00;99.90
6293;DHT22;3179;54.350;10.102;2023-03-13T04:00:42;8.00;99.90
6293;DHT22;3179;54.350;10.102;2023-03-13T04:03:09;8.00;99.90
6293;DHT22;3179;54.350;10.102;2023-03-13T04:05:35;8.00;99.90
6293;DHT22;3179;54.350;10.102;2023-03-13T04:08:02;8.00;99.90
6293;DHT22;3179;54.350;10.102;2023-03-13T04:10:30;8.00;99.90
6293;DHT22;3179;54.350;10.102;2023-03-13T04:12:57;8.00;99.90
6293;DHT22;3179;54.350;10.102;2023-03-13T04:15:24;8.00;99.90
6293;DHT22;3179;54.350;10.102;2023-03-13T04:17:51;8.10;99.90
6293;DHT22;3179;54.350;10.102;2023-03-13T04:20:18;8.00;99.90
6293;DHT22;3179;54.350;10.102;2023-03-13T04:22:44;8.10;99.90
6293;DHT22;3179;54.350;10.102;2023-03-13T04:25:11;8.10;99.90
6293;DHT22;3179;54.350;10.102;2023-03-13T04:27:39;8.10;99.90
6293;DHT22;3179;54.350;10.102;2023-03-13T04:30:07;8.10;99.90
6293;DHT22;3179;54.350;10.102;2023-03-13T04:32:34;8.10;99.90
6293;DHT22;3179;54.350;10.102;2023-03-13T04:35:01;8.10;99.90
6293;DHT22;3179;54.350;10.102;2023-03-13T04:37:27;8.10;99.90
6293;DHT22;3179;54.350;10.102;2023-03-13T04:39:54;8.10;99.90
6293;DHT22;3179;54.350;10.102;2023-03-13T04:42:21;8.10;99.90
6293;DHT22;3179;54.350;10.102;2023-03-13T04:44:49;8.10;99.90
6293;DHT22;3179;54.350;10.102;2023-03-13T04:47:16;8.10;99.90
6293;DHT22;3179;54.350;10.102;2023-03-13T04:49:43;8.10;99.90
6293;DHT22;3179;54.350;10.102;2023-03-13T04:52:10;8.20;99.90
6293;DHT22;3179;54.350;10.102;2023-03-13T04:54:37;8.20;99.90
6293;DHT22;3179;54.350;10.102;2023-03-13T04:57:04;8.20;99.90
6293;DHT22;3179;54.350;10.102;2023-03-13T04:59:31;8.20;99.90
6293;DHT22;3179;54.350;10.102;2023-03-13T05:01:59;8.20;99.90
6293;DHT22;3179;54.350;10.102;2023-03-13T05:04:26;8.20;99.90
6293;DHT22;3179;54.350;10.102;2023-03-13T05:06:52;8.20;99.90
6293;DHT22;3179;54.350;10.102;2023-03-13T05:09:19;8.20;99.90
6293;DHT22;3179;54.350;10.102;2023-03-13T05:11:46;8.20;99.90
6293;DHT22;3179;54.350;10.102;2023-03-13T05:14:14;8.20;99.90
6293;DHT22;3179;54.350;10.102;2023-03-13T05:16:41;8.20;99.90
6293;DHT22;3179;54.350;10.102;2023-03-13T05:19:09;8.20;99.90
6293;DHT22;3179;54.350;10.102;2023-03-13T05:21:36;8.20;99.90
6293;DHT22;3179;54.350;10.102;2023-03-13T05:24:03;8.30;99.90
6293;DHT22;3179;54.350;10.102;2023-03-13T05:26:30;8.20;99.90
6293;DHT22;3179;54.350;10.102;2023-03-13T05:28:57;8.20;99.90
6293;DHT22;3179;54.350;10.102;2023-03-13T05:31:23;8.30;99.90
6293;DHT22;3179;54.350;10.102;2023-03-13T05:33:50;8.30;99.90
6293;DHT22;3179;54.350;10.102;2023-03-13T05:36:18;8.30;99.90
6293;DHT22;3179;54.350;10.102;2023-03-13T05:38:45;8.30;99.90
6293;DHT22;3179;54.350;10.102;2023-03-13T05:41:12;8.30;99.90
6293;DHT22;3179;54.350;10.102;2023-03-13T05:43:38;8.30;99.90
6293;DHT22;3179;54.350;10.102;2023-03-13T05:46:05;8.30;99.90
6293;DHT22;3179;54.350;10.102;2023-03-13T05:48:32;8.30;99.90
6293;DHT22;3179;54.350;10.102;2023-03-13T05:50:59;8.30;99.90
6293;DHT22;3179;54.350;10.102;2023-03-13T05:53:27;8.30;99.90
6293;DHT22;3179;54.350;10.102;2023-03-13T05:55:54;8.40;99.90
6293;DHT22;3179;54.350;10.102;2023-03-13T05:58:21;8.40;99.90
6293;DHT22;3179;54.350;10.102;2023-03-13T06:00:47;8.40;99.90
6293;DHT22;3179;54.350;10.102;2023-03-13T06:03:14;8.40;99.90
6293;DHT22;3179;54.350;10.102;2023-03-13T06:05:41;8.40;99.90
6293;DHT22;3179;54.350;10.102;2023-03-13T06:08:08;8.40;99.90
6293;DHT22;3179;54.350;10.102;2023-03-13T06:10:36;8.40;99.90
6293;DHT22;3179;54.350;10.102;2023-03-13T06:13:03;8.50;99.90
6293;DHT22;3179;54.350;10.102;2023-03-13T06:15:29;8.40;99.90
6293;DHT22;3179;54.350;10.102;2023-03-13T06:17:56;8.50;99.90
6293;DHT22;3179;54.350;10.102;2023-03-13T06:20:23;8.50;99.90
6293;DHT22;3179;54.350;10.102;2023-03-13T06:22:50;8.50;99.90
6293;DHT22;3179;54.350;10.102;2023-03-13T06:25:17;8.50;99.90
6293;DHT22;3179;54.350;10.102;2023-03-13T06:27:45;8.50;99.90
6293;DHT22;3179;54.350;10.102;2023-03-13T06:30:12;8.50;99.90
6293;DHT22;3179;54.350;10.102;2023-03-13T06:32:39;8.60;99.90
6293;DHT22;3179;54.350;10.102;2023-03-13T06:35:06;8.60;99.90
6293;DHT22;3179;54.350;10.102;2023-03-13T06:37:33;8.60;99.90
6293;DHT22;3179;54.350;10.102;2023-03-13T06:40:00;8.60;99.90
6293;DHT22;3179;54.350;10.102;2023-03-13T06:42:26;8.60;99.90
6293;DHT22;3179;54.350;10.102;2023-03-13T06:44:55;8.60;99.90
6293;DHT22;3179;54.350;10.102;2023-03-13T06:47:21;8.70;99.90
6293;DHT22;3179;54.350;10.102;2023-03-13T06:49:48;8.70;99.90
6293;DHT22;3179;54.350;10.102;2023-03-13T06:52:15;8.70;99.90
6293;DHT22;3179;54.350;10.102;2023-03-13T06:54:41;8.70;99.90
6293;DHT22;3179;54.350;10.102;2023-03-13T06:57:08;8.70;99.90
6293;DHT22;3179;54.350;10.102;2023-03-13T06:59:35;8.70;99.90
6293;DHT22;3179;54.350;10.102;2023-03-13T07:02:03;8.70;99.90
6293;DHT22;3179;54.350;10.102;2023-03-13T07:04:30;8.70;99.90
6293;DHT22;3179;54.350;10.102;2023-03-13T07:06:57;8.80;99.90
6293;DHT22;3179;54.350;10.102;2023-03-13T07:09:24;8.80;99.90
6293;DHT22;3179;54.350;10.102;2023-03-13T07:11:50;8.80;99.90
6293;DHT22;3179;54.350;10.102;2023-03-13T07:14:17;8.80;99.90
6293;DHT22;3179;54.350;10.102;2023-03-13T07:16:44;8.90;99.90
6293;DHT22;3179;54.350;10.102;2023-03-13T07:19:13;8.90;99.90
6293;DHT22;3179;54.350;10.102;2023-03-13T07:21:40;8.90;99.90
6293;DHT22;3179;54.350;10.102;2023-03-13T07:24:07;8.90;99.90
6293;DHT22;3179;54.350;10.102;2023-03-13T07:26:34;8.90;99.90
6293;DHT22;3179;54.350;10.102;2023-03-13T07:29:01;8.90;99.90
6293;DHT22;3179;54.350;10.102;2023-03-13T07:31:28;8.90;99.90
6293;DHT22;3179;54.350;10.102;2023-03-13T07:33:58;9.00;99.90
6293;DHT22;3179;54.350;10.102;2023-03-13T07:36:27;9.00;99.90
6293;DHT22;3179;54.350;10.102;2023-03-13T07:38:54;9.10;99.90
6293;DHT22;3179;54.350;10.102;2023-03-13T07:41:21;9.00;99.90
6293;DHT22;3179;54.350;10.102;2023-03-13T07:43:48;9.10;99.90
6293;DHT22;3179;54.350;10.102;2023-03-13T07:46:16;9.10;99.90
6293;DHT22;3179;54.350;10.102;2023-03-13T07:48:45;9.10;99.90
6293;DHT22;3179;54.350;10.102;2023-03-13T07:51:13;9.10;99.90
6293;DHT22;3179;54.350;10.102;2023-03-13T07:53:42;9.20;99.90
6293;DHT22;3179;54.350;10.102;2023-03-13T07:56:11;9.20;99.90
6293;DHT22;3179;54.350;10.102;2023-03-13T07:58:39;9.30;99.90
6293;DHT22;3179;54.350;10.102;2023-03-13T08:01:08;9.40;99.90
6293;DHT22;3179;54.350;10.102;2023-03-13T08:03:35;9.40;99.90
6293;DHT22;3179;54.350;10.102;2023-03-13T08:06:03;9.40;99.90
6293;DHT22;3179;54.350;10.102;2023-03-13T08:08:30;9.40;99.90
6293;DHT22;3179;54.350;10.102;2023-03-13T08:11:02;9.40;99.90
6293;DHT22;3179;54.350;10.102;2023-03-13T08:13:29;9.50;99.90
6293;DHT22;3179;54.350;10.102;2023-03-13T08:16:04;9.50;99.90
6293;DHT22;3179;54.350;10.102;2023-03-13T08:18:31;9.50;99.90
6293;DHT22;3179;54.350;10.102;2023-03-13T08:21:03;9.50;99.90
6293;DHT22;3179;54.350;10.102;2023-03-13T08:23:30;9.60;99.90
6293;DHT22;3179;54.350;10.102;2023-03-13T08:26:02;9.60;99.90
6293;DHT22;3179;54.350;10.102;2023-03-13T08:28:29;9.60;99.90
6293;DHT22;3179;54.350;10.102;2023-03-13T08:30:56;9.60;99.90
6293;DHT22;3179;54.350;10.102;2023-03-13T08:33:23;9.60;99.90
6293;DHT22;3179;54.350;10.102;2023-03-13T08:35:50;9.70;99.90
6293;DHT22;3179;54.350;10.102;2023-03-13T08:38:17;9.70;99.90
6293;DHT22;3179;54.350;10.102;2023-03-13T08:40:44;9.70;99.90
6293;DHT22;3179;54.350;10.102;2023-03-13T08:43:12;9.80;99.90
6293;DHT22;3179;54.350;10.102;2023-03-13T08:45:38;9.90;99.90
6293;DHT22;3179;54.350;10.102;2023-03-13T08:48:05;9.90;99.90
6293;DHT22;3179;54.350;10.102;2023-03-13T08:50:32;9.90;99.90
6293;DHT22;3179;54.350;10.102;2023-03-13T08:52:59;10.00;99.90
6293;DHT22;3179;54.350;10.102;2023-03-13T08:55:26;10.10;99.90
6293;DHT22;3179;54.350;10.102;2023-03-13T08:57:52;10.10;99.90
6293;DHT22;3179;54.350;10.102;2023-03-13T09:00:21;10.10;99.90
6293;DHT22;3179;54.350;10.102;2023-03-13T09:02:48;10.20;99.90
6293;DHT22;3179;54.350;10.102;2023-03-13T09:05:15;10.20;99.90
6293;DHT22;3179;54.350;10.102;2023-03-13T09:07:41;10.20;99.90
6293;DHT22;3179;54.350;10.102;2023-03-13T09:10:09;10.30;99.90
6293;DHT22;3179;54.350;10.102;2023-03-13T09:12:36;10.30;99.90
6293;DHT22;3179;54.350;10.102;2023-03-13T09:15:03;10.30;99.90
6293;DHT22;3179;54.350;10.102;2023-03-13T09:17:31;10.30;99.90
6293;DHT22;3179;54.350;10.102;2023-03-13T09:19:58;10.40;99.90
6293;DHT22;3179;54.350;10.102;2023-03-13T09:22:25;10.40;99.90
6293;DHT22;3179;54.350;10.102;2023-03-13T09:24:52;10.50;99.90
6293;DHT22;3179;54.350;10.102;2023-03-13T09:27:18;10.50;99.90
6293;DHT22;3179;54.350;10.102;2023-03-13T09:29:45;10.50;99.90
6293;DHT22;3179;54.350;10.102;2023-03-13T09:32:12;10.60;99.90
6293;DHT22;3179;54.350;10.102;2023-03-13T09:34:40;10.50;99.90
6293;DHT22;3179;54.350;10.102;2023-03-13T09:37:07;10.60;99.90
6293;DHT22;3179;54.350;10.102;2023-03-13T09:39:34;10.70;99.90
6293;DHT22;3179;54.350;10.102;2023-03-13T09:42:05;10.70;99.90
6293;DHT22;3179;54.350;10.102;2023-03-13T09:44:37;10.80;99.90
6293;DHT22;3179;54.350;10.102;2023-03-13T09:47:11;10.80;99.90
6293;DHT22;3179;54.350;10.102;2023-03-13T09:49:42;10.80;99.90
6293;DHT22;3179;54.350;10.102;2023-03-13T09:52:15;10.90;99.90
6293;DHT22;3179;54.350;10.102;2023-03-13T09:54:46;10.90;99.90
6293;DHT22;3179;54.350;10.102;2023-03-13T09:57:19;11.00;99.90
6293;DHT22;3179;54.350;10.102;2023-03-13T09:59:52;11.00;99.90
6293;DHT22;3179;54.350;10.102;2023-03-13T10:02:31;11.00;99.90
6293;DHT22;3179;54.350;10.102;2023-03-13T10:05:14;11.00;99.90
6293;DHT22;3179;54.350;10.102;2023-03-13T10:07:42;11.10;99.90
6293;DHT22;3179;54.350;10.102;2023-03-13T10:10:15;11.10;99.90
6293;DHT22;3179;54.350;10.102;2023-03-13T10:12:44;11.10;99.90
6293;DHT22;3179;54.350;10.102;2023-03-13T10:15:29;11.10;99.90
6293;DHT22;3179;54.350;10.102;2023-03-13T10:17:58;11.10;99.90
6293;DHT22;3179;54.350;10.102;2023-03-13T10:20:33;11.20;99.90
6293;DHT22;3179;54.350;10.102;2023-03-13T10:23:04;11.10;99.90
6293;DHT22;3179;54.350;10.102;2023-03-13T10:25:33;11.20;99.90
6293;DHT22;3179;54.350;10.102;2023-03-13T10:28:01;11.20;99.90
6293;DHT22;3179;54.350;10.102;2023-03-13T10:30:29;11.20;99.90
6293;DHT22;3179;54.350;10.102;2023-03-13T10:32:58;11.20;99.90
6293;DHT22;3179;54.350;10.102;2023-03-13T10:35:32;11.20;99.90
6293;DHT22;3179;54.350;10.102;2023-03-13T10:38:03;11.30;99.90
6293;DHT22;3179;54.350;10.102;2023-03-13T10:40:31;11.40;99.90
6293;DHT22;3179;54.350;10.102;2023-03-13T10:43:03;11.50;99.90
6293;DHT22;3179;54.350;10.102;2023-03-13T10:45:33;11.60;99.90
6293;DHT22;3179;54.350;10.102;2023-03-13T10:48:02;11.70;99.90
6293;DHT22;3179;54.350;10.102;2023-03-13T10:50:33;11.70;99.90
6293;DHT22;3179;54.350;10.102;2023-03-13T10:53:18;11.80;99.90
6293;DHT22;3179;54.350;10.102;2023-03-13T10:55:46;11.90;99.90
6293;DHT22;3179;54.350;10.102;2023-03-13T10:58:19;11.90;99.90
6293;DHT22;3179;54.350;10.102;2023-03-13T11:00:46;11.90;99.90
6293;DHT22;3179;54.350;10.102;2023-03-13T11:03:16;11.90;99.90
6293;DHT22;3179;54.350;10.102;2023-03-13T11:05:53;11.90;99.90
6293;DHT22;3179;54.350;10.102;2023-03-13T11:08:23;11.90;99.90
6293;DHT22;3179;54.350;10.102;2023-03-13T11:10:55;11.90;99.90
6293;DHT22;3179;54.350;10.102;2023-03-13T11:13:34;12.00;99.90
6293;DHT22;3179;54.350;10.102;2023-03-13T11:16:07;12.00;99.90
6293;DHT22;3179;54.350;10.102;2023-03-13T11:18:41;12.10;99.90
6293;DHT22;3179;54.350;10.102;2023-03-13T11:21:16;12.10;99.90
6293;DHT22;3179;54.350;10.102;2023-03-13T11:23:48;12.20;99.90
6293;DHT22;3179;54.350;10.102;2023-03-13T11:26:22;12.20;99.90
6293;DHT22;3179;54.350;10.102;2023-03-13T11:28:55;12.30;99.90
6293;DHT22;3179;54.350;10.102;2023-03-13T11:31:27;12.40;99.90
6293;DHT22;3179;54.350;10.102;2023-03-13T11:33:58;12.40;99.90
6293;DHT22;3179;54.350;10.102;2023-03-13T11:36:33;12.50;99.90
6293;DHT22;3179;54.350;10.102;2023-03-13T11:39:30;12.50;99.90
6293;DHT22;3179;54.350;10.102;2023-03-13T11:42:04;12.60;99.90
6293;DHT22;3179;54.350;10.102;2023-03-13T11:44:43;12.60;99.90
6293;DHT22;3179;54.350;10.102;2023-03-13T11:47:26;12.70;99.90
6293;DHT22;3179;54.350;10.102;2023-03-13T11:53:11;12.80;99.90
6293;DHT22;3179;54.350;10.102;2023-03-13T11:55:51;12.80;99.90
6293;DHT22;3179;54.350;10.102;2023-03-13T11:58:36;12.80;99.90
6293;DHT22;3179;54.350;10.102;2023-03-13T12:01:07;12.80;99.90
6293;DHT22;3179;54.350;10.102;2023-03-13T12:03:38;12.80;99.90
6293;DHT22;3179;54.350;10.102;2023-03-13T12:06:18;12.80;99.90
6293;DHT22;3179;54.350;10.102;2023-03-13T12:08:51;12.80;99.90
6293;DHT22;3179;54.350;10.102;2023-03-13T12:11:22;12.80;99.90
6293;DHT22;3179;54.350;10.102;2023-03-13T12:13:56;12.80;99.90
6293;DHT22;3179;54.350;10.102;2023-03-13T12:16:28;12.80;99.90
6293;DHT22;3179;54.350;10.102;2023-03-13T12:19:00;12.90;99.90
6293;DHT22;3179;54.350;10.102;2023-03-13T12:21:29;13.00;99.90
6293;DHT22;3179;54.350;10.102;2023-03-13T12:24:05;13.00;99.90
6293;DHT22;3179;54.350;10.102;2023-03-13T12:26:38;13.10;99.90
6293;DHT22;3179;54.350;10.102;2023-03-13T12:29:13;13.10;99.90
6293;DHT22;3179;54.350;10.102;2023-03-13T12:31:46;13.20;99.90
6293;DHT22;3179;54.350;10.102;2023-03-13T12:34:17;13.20;99.90
6293;DHT22;3179;54.350;10.102;2023-03-13T12:36:49;13.30;99.90
6293;DHT22;3179;54.350;10.102;2023-03-13T12:39:31;13.30;99.90
6293;DHT22;3179;54.350;10.102;2023-03-13T12:42:09;13.30;99.90
6293;DHT22;3179;54.350;10.102;2023-03-13T12:44:39;13.30;99.90
6293;DHT22;3179;54.350;10.102;2023-03-13T12:47:08;13.30;99.90
6293;DHT22;3179;54.350;10.102;2023-03-13T12:49:54;13.30;99.90
6293;DHT22;3179;54.350;10.102;2023-03-13T12:52:56;13.30;99.90
6293;DHT22;3179;54.350;10.102;2023-03-13T12:55:51;13.30;99.90
6293;DHT22;3179;54.350;10.102;2023-03-13T12:58:27;13.30;99.90
6293;DHT22;3179;54.350;10.102;2023-03-13T13:00:55;13.30;99.90
6293;DHT22;3179;54.350;10.102;2023-03-13T13:03:29;13.30;99.90
6293;DHT22;3179;54.350;10.102;2023-03-13T13:06:04;13.30;99.90
6293;DHT22;3179;54.350;10.102;2023-03-13T13:08:34;13.30;99.90
6293;DHT22;3179;54.350;10.102;2023-03-13T13:14:59;13.30;99.90
6293;DHT22;3179;54.350;10.102;2023-03-13T13:17:48;13.40;99.90
6293;DHT22;3179;54.350;10.102;2023-03-13T13:20:44;13.40;99.90
6293;DHT22;3179;54.350;10.102;2023-03-13T13:23:33;13.50;99.90
6293;DHT22;3179;54.350;10.102;2023-03-13T13:32:39;13.70;99.90
6293;DHT22;3179;54.350;10.102;2023-03-13T13:35:30;13.80;99.90
6293;DHT22;3179;54.350;10.102;2023-03-13T13:38:30;13.80;99.90
6293;DHT22;3179;54.350;10.102;2023-03-13T13:41:34;13.80;99.90
6293;DHT22;3179;54.350;10.102;2023-03-13T13:44:22;13.90;99.90
6293;DHT22;3179;54.350;10.102;2023-03-13T13:46:49;13.90;99.90
6293;DHT22;3179;54.350;10.102;2023-03-13T13:49:19;13.80;99.90
6293;DHT22;3179;54.350;10.102;2023-03-13T13:55:41;13.80;99.90
6293;DHT22;3179;54.350;10.102;2023-03-13T13:58:11;13.80;99.90
6293;DHT22;3179;54.350;10.102;2023-03-13T14:00:42;13.80;99.90
6293;DHT22;3179;54.350;10.102;2023-03-13T14:03:19;13.80;99.90
6293;DHT22;3179;54.350;10.102;2023-03-13T14:05:51;13.90;99.90
6293;DHT22;3179;54.350;10.102;2023-03-13T14:08:22;13.90;99.90
6293;DHT22;3179;54.350;10.102;2023-03-13T14:10:53;13.90;99.90
6293;DHT22;3179;54.350;10.102;2023-03-13T14:13:21;14.00;99.90
6293;DHT22;3179;54.350;10.102;2023-03-13T14:15:50;14.10;99.90
6293;DHT22;3179;54.350;10.102;2023-03-13T14:18:22;14.10;99.90
6293;DHT22;3179;54.350;10.102;2023-03-13T14:20:56;14.20;99.90
6293;DHT22;3179;54.350;10.102;2023-03-13T14:23:35;14.40;99.90
6293;DHT22;3179;54.350;10.102;2023-03-13T14:26:14;14.50;99.90
6293;DHT22;3179;54.350;10.102;2023-03-13T14:28:44;14.60;99.90
6293;DHT22;3179;54.350;10.102;2023-03-13T14:31:21;14.60;99.90
6293;DHT22;3179;54.350;10.102;2023-03-13T14:33:49;14.60;99.90
6293;DHT22;3179;54.350;10.102;2023-03-13T14:36:18;14.60;99.90
6293;DHT22;3179;54.350;10.102;2023-03-13T14:38:53;14.60;99.90
6293;DHT22;3179;54.350;10.102;2023-03-13T14:41:27;14.60;99.90
6293;DHT22;3179;54.350;10.102;2023-03-13T14:44:01;14.50;99.90
6293;DHT22;3179;54.350;10.102;2023-03-13T14:46:30;14.50;99.90
6293;DHT22;3179;54.350;10.102;2023-03-13T14:49:06;14.50;99.90
6293;DHT22;3179;54.350;10.102;2023-03-13T14:51:37;14.60;99.90
6293;DHT22;3179;54.350;10.102;2023-03-13T14:54:05;14.60;99.90
6293;DHT22;3179;54.350;10.102;2023-03-13T14:57:00;14.70;99.90
6293;DHT22;3179;54.350;10.102;2023-03-13T14:59:27;14.70;99.90
6293;DHT22;3179;54.350;10.102;2023-03-13T15:01:58;14.70;99.90
6293;DHT22;3179;54.350;10.102;2023-03-13T15:04:47;14.60;99.90
6293;DHT22;3179;54.350;10.102;2023-03-13T15:07:15;14.50;99.90
6293;DHT22;3179;54.350;10.102;2023-03-13T15:09:44;14.50;99.90
6293;DHT22;3179;54.350;10.102;2023-03-13T15:12:13;14.50;99.90
6293;DHT22;3179;54.350;10.102;2023-03-13T15:14:42;14.50;99.90
6293;DHT22;3179;54.350;10.102;2023-03-13T15:17:12;14.50;99.90
6293;DHT22;3179;54.350;10.102;2023-03-13T15:19:39;14.50;99.90
6293;DHT22;3179;54.350;10.102;2023-03-13T15:22:11;14.50;99.90
6293;DHT22;3179;54.350;10.102;2023-03-13T15:24:39;14.50;99.90
6293;DHT22;3179;54.350;10.102;2023-03-13T15:27:14;14.40;99.90
6293;DHT22;3179;54.350;10.102;2023-03-13T15:29:41;14.40;99.90
6293;DHT22;3179;54.350;10.102;2023-03-13T15:32:10;14.40;99.90
6293;DHT22;3179;54.350;10.102;2023-03-13T15:34:39;14.50;99.90
6293;DHT22;3179;54.350;10.102;2023-03-13T15:37:09;14.50;99.90
6293;DHT22;3179;54.350;10.102;2023-03-13T15:39:38;14.50;99.90
6293;DHT22;3179;54.350;10.102;2023-03-13T15:42:05;14.50;99.90
6293;DHT22;3179;54.350;10.102;2023-03-13T15:44:32;14.50;99.90
6293;DHT22;3179;54.350;10.102;2023-03-13T15:46:58;14.40;99.90
6293;DHT22;3179;54.350;10.102;2023-03-13T15:49:25;14.40;99.90
6293;DHT22;3179;54.350;10.102;2023-03-13T15:51:52;14.40;99.90
6293;DHT22;3179;54.350;10.102;2023-03-13T15:54:19;14.30;99.90
6293;DHT22;3179;54.350;10.102;2023-03-13T15:56:47;14.30;99.90
6293;DHT22;3179;54.350;10.102;2023-03-13T15:59:15;14.30;99.90
6293;DHT22;3179;54.350;10.102;2023-03-13T16:01:42;14.20;99.90
6293;DHT22;3179;54.350;10.102;2023-03-13T16:04:09;14.20;99.90
6293;DHT22;3179;54.350;10.102;2023-03-13T16:06:36;14.20;99.90
6293;DHT22;3179;54.350;10.102;2023-03-13T16:09:05;14.20;99.90
6293;DHT22;3179;54.350;10.102;2023-03-13T16:11:32;14.20;99.90
6293;DHT22;3179;54.350;10.102;2023-03-13T16:14:00;14.20;99.90
6293;DHT22;3179;54.350;10.102;2023-03-13T16:16:29;14.10;99.90
6293;DHT22;3179;54.350;10.102;2023-03-13T16:18:58;14.10;99.90
6293;DHT22;3179;54.350;10.102;2023-03-13T16:21:27;14.10;99.90
6293;DHT22;3179;54.350;10.102;2023-03-13T16:23:54;14.10;99.90
6293;DHT22;3179;54.350;10.102;2023-03-13T16:26:22;14.10;99.90
6293;DHT22;3179;54.350;10.102;2023-03-13T16:28:50;14.00;99.90